Archiv-/Tagesdaten

--Timestamp---	Temp	Chill	HIndex	Humid	Dewpt	 Wind 	HiWind	WindDir	Rain 	Barom	Solar	 ET  	 UV 
--------------	----	-----	------	-----	-----	------	------	-------	-----	-----	-----	-----	----
20090711 00:00	11.3	11.3	11.3	85	8.8	3	5	248	0.0	1017.0	0	0.025	0.0
20090711 00:05	11.1	11.1	11.1	86	8.9	3	5	248	0.0	1017.0	0	0.000	0.0
20090711 00:10	11.1	11.1	11.1	86	8.8	2	5	248	0.0	1017.0	0	0.000	0.0
20090711 00:15	11.0	11.0	11.0	87	8.9	2	6	248	0.0	1017.1	0	0.000	0.0
20090711 00:20	10.9	10.9	10.9	87	8.9	2	6	248	0.0	1017.1	0	0.000	0.0
20090711 00:25	10.9	10.9	10.9	87	8.8	2	6	248	0.0	1017.1	0	0.000	0.0
20090711 00:30	10.9	10.9	10.9	88	9.0	3	8	248	0.0	1017.0	0	0.000	0.0
20090711 00:35	10.9	10.9	10.9	88	9.0	3	6	248	0.0	1017.0	0	0.000	0.0
20090711 00:40	11.0	11.0	11.0	88	9.1	6	10	248	0.0	1017.1	0	0.000	0.0
20090711 00:45	11.0	11.0	11.0	88	9.1	6	10	225	0.0	1017.1	0	0.000	0.0
20090711 00:50	11.0	11.0	11.0	88	9.1	3	8	225	0.0	1017.1	0	0.000	0.0
20090711 00:55	10.9	10.9	10.9	88	9.0	3	6	225	0.0	1017.1	0	0.000	0.0
20090711 01:00	10.8	10.8	10.8	88	8.9	3	6	225	0.0	1017.0	0	0.000	0.0
20090711 01:05	10.7	10.7	10.7	88	8.8	6	10	225	0.0	1016.9	0	0.000	0.0
20090711 01:10	10.6	10.6	10.6	88	8.7	6	11	225	0.0	1016.9	0	0.000	0.0
20090711 01:15	10.6	10.6	10.6	88	8.7	6	10	202	0.0	1016.8	0	0.000	0.0
20090711 01:20	10.5	10.5	10.5	88	8.6	5	8	225	0.0	1016.8	0	0.000	0.0
20090711 01:25	10.5	10.5	10.5	88	8.6	5	8	225	0.0	1016.8	0	0.000	0.0
20090711 01:30	10.4	10.4	10.4	88	8.5	5	10	225	0.0	1016.9	0	0.000	0.0
20090711 01:35	10.4	10.4	10.4	88	8.5	5	8	225	0.0	1016.8	0	0.000	0.0
20090711 01:40	10.3	10.3	10.3	88	8.4	6	8	225	0.0	1016.8	0	0.000	0.0
20090711 01:45	10.2	10.2	10.2	88	8.3	6	10	225	0.0	1016.8	0	0.000	0.0
20090711 01:50	10.2	10.2	10.2	88	8.3	6	10	225	0.0	1016.8	0	0.000	0.0
20090711 01:55	10.2	10.2	10.2	89	8.5	6	10	225	0.0	1016.8	0	0.000	0.0
20090711 02:00	10.3	10.3	10.3	89	8.5	6	10	225	0.0	1017.0	0	0.025	0.0
20090711 02:05	10.2	10.2	10.2	89	8.5	6	11	225	0.0	1017.2	0	0.000	0.0
20090711 02:10	10.2	10.2	10.2	89	8.5	6	10	202	0.0	1017.2	0	0.000	0.0
20090711 02:15	10.2	10.2	10.2	89	8.5	5	10	225	0.0	1017.2	0	0.000	0.0
20090711 02:20	10.3	10.3	10.3	89	8.5	5	10	225	0.0	1017.2	0	0.000	0.0
20090711 02:25	10.3	10.3	10.3	89	8.5	5	10	225	0.0	1017.1	0	0.000	0.0
20090711 02:30	10.4	10.4	10.4	89	8.7	5	8	225	0.0	1017.0	0	0.000	0.0
20090711 02:35	10.4	10.4	10.4	89	8.7	3	10	225	0.0	1017.2	0	0.000	0.0
20090711 02:40	10.6	10.6	10.6	89	8.8	5	8	225	0.0	1017.2	0	0.000	0.0
20090711 02:45	10.7	10.7	10.7	89	8.9	3	6	225	0.0	1017.1	0	0.000	0.0
20090711 02:50	10.8	10.8	10.8	88	8.9	5	8	225	0.0	1017.2	0	0.000	0.0
20090711 02:55	10.8	10.8	10.8	88	8.9	3	6	225	0.0	1017.2	0	0.000	0.0
20090711 03:00	10.8	10.8	10.8	88	8.9	5	8	225	0.0	1017.2	0	0.000	0.0
20090711 03:05	10.9	10.9	10.9	88	9.0	5	10	225	0.0	1016.9	0	0.000	0.0
20090711 03:10	10.9	10.9	10.9	88	9.0	3	8	225	0.0	1016.9	0	0.000	0.0
20090711 03:15	11.0	11.0	11.0	88	9.1	5	8	225	0.0	1016.9	0	0.000	0.0
20090711 03:20	11.1	11.1	11.1	88	9.1	3	6	225	0.0	1016.8	0	0.000	0.0
20090711 03:25	11.1	11.1	11.1	88	9.1	3	6	225	0.0	1016.7	0	0.000	0.0
20090711 03:30	11.1	11.1	11.1	88	9.1	2	5	225	0.0	1016.9	0	0.000	0.0
20090711 03:35	11.1	11.1	11.1	88	9.2	2	6	225	0.0	1016.8	0	0.000	0.0
20090711 03:40	11.1	11.1	11.1	88	9.2	2	5	225	0.0	1016.9	0	0.000	0.0
20090711 03:45	11.1	11.1	11.1	88	9.1	2	5	225	0.0	1016.9	0	0.000	0.0
20090711 03:50	11.1	11.1	11.1	88	9.2	0	5	225	0.0	1016.8	0	0.000	0.0
20090711 03:55	11.1	11.1	11.1	88	9.2	2	5	225	0.0	1016.7	0	0.000	0.0
20090711 04:00	11.1	11.1	11.1	88	9.2	3	6	225	0.0	1016.7	0	0.000	0.0
20090711 04:05	11.1	11.1	11.1	88	9.2	2	5	225	0.0	1016.9	0	0.000	0.0
20090711 04:10	11.1	11.1	11.1	88	9.2	2	5	225	0.0	1017.1	0	0.000	0.0
20090711 04:15	11.1	11.1	11.1	88	9.1	3	6	225	0.0	1017.1	0	0.000	0.0
20090711 04:20	11.1	11.1	11.1	88	9.1	3	6	225	0.0	1017.1	0	0.000	0.0
20090711 04:25	11.1	11.1	11.1	88	9.1	2	6	225	0.0	1017.0	0	0.000	0.0
20090711 04:30	11.1	11.1	11.1	88	9.1	3	6	225	0.0	1017.0	0	0.000	0.0
20090711 04:35	11.1	11.1	11.1	88	9.1	2	5	225	0.0	1017.1	0	0.000	0.0
20090711 04:40	11.1	11.1	11.1	88	9.1	5	8	225	0.0	1017.1	0	0.000	0.0
20090711 04:45	11.1	11.1	11.1	88	9.1	5	8	225	0.0	1017.1	0	0.000	0.0
20090711 04:50	11.1	11.1	11.1	88	9.1	3	8	225	0.0	1017.1	0	0.000	0.0
20090711 04:55	11.0	11.0	11.0	88	9.1	3	6	225	0.0	1017.1	0	0.000	0.0
20090711 05:00	11.0	11.0	11.0	88	9.1	2	6	225	0.0	1017.1	0	0.000	0.0
20090711 05:05	10.9	10.9	10.9	88	9.0	2	6	225	0.0	1016.9	0	0.000	0.0
20090711 05:10	10.8	10.8	10.8	88	8.9	3	8	225	0.0	1016.9	0	0.000	0.0
20090711 05:15	10.8	10.8	10.8	89	9.0	3	6	225	0.0	1016.8	0	0.000	0.0
20090711 05:20	10.7	10.7	10.7	89	9.0	5	8	225	0.0	1017.0	0	0.000	0.0
20090711 05:25	10.7	10.7	10.7	89	9.0	5	10	225	0.0	1017.0	0	0.000	0.0
20090711 05:30	10.7	10.7	10.7	89	8.9	6	10	225	0.0	1017.0	3	0.000	0.0
20090711 05:35	10.7	10.7	10.7	89	8.9	6	10	225	0.0	1017.0	7	0.000	0.0
20090711 05:40	10.7	10.7	10.7	89	8.9	5	8	225	0.0	1017.1	11	0.000	0.0
20090711 05:45	10.7	10.7	10.7	89	8.9	5	8	225	0.0	1017.0	13	0.000	0.0
20090711 05:50	10.7	10.7	10.7	89	8.9	5	6	225	0.0	1017.0	16	0.000	0.0
20090711 05:55	10.6	10.6	10.6	89	8.9	5	6	225	0.0	1017.0	19	0.000	0.0
20090711 06:00	10.6	10.6	10.6	89	8.8	3	6	225	0.0	1017.1	23	0.000	0.0
20090711 06:05	10.6	10.6	10.6	89	8.9	5	8	225	0.0	1017.2	28	0.000	0.0
20090711 06:10	10.6	10.6	10.6	89	8.9	3	6	225	0.0	1017.2	36	0.000	0.0
20090711 06:15	10.6	10.6	10.6	88	8.7	5	8	225	0.0	1017.2	48	0.000	0.0
20090711 06:20	10.7	10.7	10.7	88	8.8	3	8	225	0.0	1017.2	52	0.000	0.0
20090711 06:25	10.8	10.8	10.8	88	8.9	5	6	225	0.0	1017.2	65	0.000	0.0
20090711 06:30	10.9	10.9	10.9	88	9.0	5	8	225	0.0	1017.0	75	0.000	0.0
20090711 06:35	11.1	11.1	11.1	88	9.1	3	8	225	0.0	1017.0	83	0.000	0.0
20090711 06:40	11.2	11.2	11.2	88	9.3	3	8	225	0.0	1016.9	97	0.000	0.0
20090711 06:45	11.4	11.4	11.4	88	9.5	5	8	225	0.0	1017.0	94	0.000	0.0
20090711 06:50	11.6	11.6	11.6	88	9.6	5	8	225	0.0	1017.0	92	0.000	0.0
20090711 06:55	11.8	11.8	11.8	88	9.9	3	8	225	0.0	1016.9	191	0.000	0.0
20090711 07:00	12.1	12.1	12.1	86	9.8	5	10	225	0.0	1016.8	226	0.051	0.0
20090711 07:05	12.4	12.4	12.4	84	9.8	5	10	225	0.0	1017.0	152	0.000	0.0
20090711 07:10	12.6	12.6	12.6	84	10.0	5	8	225	0.0	1016.9	131	0.000	0.0
20090711 07:15	12.8	12.8	12.8	83	10.0	6	10	225	0.0	1016.9	111	0.000	0.0
20090711 07:20	12.9	12.9	12.9	82	9.9	3	8	225	0.0	1016.8	95	0.000	0.0
20090711 07:25	12.9	12.9	12.9	82	9.9	5	8	225	0.0	1016.8	124	0.000	0.0
20090711 07:30	13.1	13.1	13.1	82	10.1	5	11	270	0.0	1016.8	153	0.000	0.0
20090711 07:35	13.1	13.1	13.1	82	10.1	5	10	248	0.0	1016.8	141	0.000	0.4
20090711 07:40	13.2	13.2	13.2	81	10.0	5	11	225	0.0	1016.8	178	0.000	0.6
20090711 07:45	13.3	13.3	13.3	81	10.1	6	14	248	0.0	1016.8	166	0.000	0.6
20090711 07:50	13.3	13.3	13.3	81	10.1	5	10	270	0.0	1016.8	162	0.000	0.6
20090711 07:55	13.3	13.3	13.3	82	10.3	6	11	248	0.0	1016.8	176	0.000	0.7
20090711 08:00	13.3	13.3	13.3	82	10.3	6	14	270	0.0	1016.8	220	0.076	0.7
20090711 08:05	13.6	13.6	13.6	82	10.5	6	10	270	0.0	1016.8	245	0.000	0.8
20090711 08:10	13.7	13.7	13.7	81	10.5	6	14	248	0.0	1016.8	342	0.000	1.0
20090711 08:15	13.9	13.9	13.9	78	10.1	6	14	270	0.0	1016.8	213	0.000	1.0
20090711 08:20	14.1	14.1	14.1	78	10.3	5	10	225	0.0	1016.7	301	0.000	1.1
20090711 08:25	14.3	14.3	14.3	75	9.9	10	18	270	0.0	1016.6	302	0.000	1.2
20090711 08:30	14.4	14.4	14.4	74	9.9	8	16	248	0.0	1016.6	372	0.000	1.3
20090711 08:35	14.8	14.8	14.8	72	9.8	10	18	270	0.0	1016.6	433	0.000	1.5
20090711 08:40	15.0	15.0	15.0	72	10.0	6	11	270	0.0	1016.4	380	0.000	1.5
20090711 08:45	15.2	15.2	15.2	69	9.5	8	16	270	0.0	1016.5	441	0.000	1.7
20090711 08:50	15.3	15.3	15.3	68	9.4	8	16	270	0.0	1016.3	410	0.000	1.7
20090711 08:55	15.4	15.4	15.4	65	8.9	10	19	270	0.0	1016.3	400	0.000	1.7
20090711 09:00	15.4	15.4	15.4	63	8.4	10	19	270	0.0	1016.4	414	0.203	1.8
20090711 09:05	15.5	15.5	15.5	63	8.5	10	18	248	0.0	1016.7	415	0.000	1.9
20090711 09:10	15.5	15.5	15.5	61	8.0	10	19	270	0.0	1016.7	382	0.000	1.9
20090711 09:15	15.7	15.7	15.7	61	8.2	10	19	292	0.0	1016.6	506	0.000	2.2
20090711 09:20	15.9	15.9	15.9	59	7.9	10	21	270	0.0	1016.6	543	0.000	2.4
20090711 09:25	16.2	16.2	16.2	58	7.9	11	24	270	0.0	1016.6	562	0.000	2.5
20090711 09:30	16.5	16.5	16.5	58	8.2	10	19	270	0.0	1016.7	644	0.000	2.5
20090711 09:35	16.6	16.6	16.6	57	8.0	10	19	292	0.0	1016.6	471	0.000	2.4
20090711 09:40	16.6	16.6	16.6	58	8.3	11	18	292	0.0	1016.7	652	0.000	2.5
20090711 09:45	16.6	16.6	16.6	58	8.3	10	18	270	0.0	1016.6	653	0.000	3.1
20090711 09:50	16.7	16.7	16.7	57	8.1	8	16	270	0.0	1016.6	745	0.000	3.3
20090711 09:55	16.9	16.9	16.9	57	8.3	6	13	270	0.0	1016.6	713	0.000	3.4
20090711 10:00	16.8	16.8	16.8	56	8.0	8	16	292	0.0	1016.6	569	0.330	2.4
20090711 10:05	16.7	16.7	16.7	58	8.4	6	14	270	0.0	1016.6	230	0.000	1.8
20090711 10:10	16.4	16.4	16.4	59	8.4	6	13	292	0.0	1016.6	169	0.000	1.9
20090711 10:15	16.3	16.3	16.3	58	8.0	8	16	292	0.0	1016.7	338	0.000	3.0
20090711 10:20	16.4	16.4	16.4	56	7.6	8	16	270	0.0	1016.6	755	0.000	4.0
20090711 10:25	16.8	16.8	16.8	56	8.0	6	11	292	0.0	1016.7	565	0.000	3.4
20090711 10:30	16.8	16.8	16.8	58	8.5	8	16	270	0.0	1016.6	345	0.000	2.9
20090711 10:35	16.7	16.7	16.7	57	8.2	8	11	292	0.0	1016.6	251	0.000	2.7
20090711 10:40	16.7	16.7	16.7	56	7.8	5	10	292	0.0	1016.7	227	0.000	2.4
20090711 10:45	16.6	16.6	16.6	56	7.7	6	10	315	0.0	1016.6	332	0.000	2.8
20090711 10:50	16.5	16.5	16.5	59	8.5	5	10	270	0.0	1016.6	216	0.000	1.8
20090711 10:55	16.4	16.4	16.4	57	7.9	8	18	45	0.0	1016.6	226	0.000	2.1
20090711 11:00	16.3	16.3	16.3	58	8.0	6	11	270	0.0	1016.7	221	0.229	2.0
20090711 11:05	16.3	16.3	16.3	59	8.2	6	14	270	0.0	1016.9	213	0.000	1.8
20090711 11:10	16.3	16.3	16.3	58	8.0	6	16	202	0.0	1016.9	165	0.000	1.5
20090711 11:15	16.3	16.3	16.3	58	8.0	5	10	270	0.0	1016.9	170	0.000	1.7
20090711 11:20	16.3	16.3	16.3	57	7.8	6	13	270	0.0	1016.9	298	0.000	3.7
20090711 11:25	16.6	16.6	16.6	56	7.8	5	8	292	0.0	1016.7	397	0.000	3.6
20090711 11:30	16.9	16.9	16.9	56	8.1	6	16	292	0.0	1016.6	354	0.000	3.0
20090711 11:35	17.0	17.0	17.0	57	8.4	8	16	292	0.0	1016.7	453	0.000	2.7
20090711 11:40	17.0	17.0	17.0	57	8.4	11	21	292	0.0	1016.8	163	0.000	1.5
20090711 11:45	16.9	16.9	16.9	57	8.4	6	18	315	0.0	1016.8	391	0.000	3.9
20090711 11:50	17.1	17.1	17.1	56	8.3	6	14	315	0.0	1016.8	615	0.000	5.3
20090711 11:55	17.3	17.3	17.3	57	8.7	3	8	22	0.0	1016.7	338	0.000	3.0
20090711 12:00	17.3	17.3	17.3	56	8.4	8	19	315	0.0	1016.8	291	0.254	2.6
20090711 12:05	17.2	17.2	17.2	57	8.6	8	16	315	0.0	1016.7	347	0.000	4.4
20090711 12:10	17.3	17.3	17.3	57	8.7	3	11	315	0.0	1016.7	605	0.000	5.2
20090711 12:15	17.6	17.6	17.6	60	9.7	3	8	292	0.0	1016.6	998	0.000	7.0
20090711 12:20	17.9	17.9	17.9	53	8.2	8	18	292	0.0	1016.5	691	0.000	5.4
20090711 12:25	17.8	17.8	17.8	53	8.1	8	18	315	0.0	1016.5	314	0.000	3.5
20090711 12:30	17.6	17.6	17.6	56	8.7	6	16	292	0.0	1016.5	291	0.000	3.0
20090711 12:35	17.4	17.4	17.4	56	8.6	8	18	315	0.0	1016.6	736	0.000	5.7
20090711 12:40	17.8	17.8	17.8	54	8.4	8	16	292	0.0	1016.4	923	0.000	6.8
20090711 12:45	18.3	18.3	18.3	52	8.2	8	18	292	0.0	1016.4	899	0.000	7.1
20090711 12:50	18.5	18.5	18.5	52	8.5	13	24	292	0.0	1016.4	934	0.000	7.1
20090711 12:55	18.6	18.6	18.6	51	8.2	10	19	292	0.0	1016.4	373	0.000	5.1
20090711 13:00	18.7	18.7	18.7	51	8.3	5	16	315	0.0	1016.2	425	0.406	5.8
20090711 13:05	18.6	18.6	18.6	51	8.3	13	21	292	0.0	1016.3	515	0.000	4.5
20090711 13:10	18.5	18.5	18.5	52	8.5	10	19	292	0.0	1016.2	264	0.000	4.0
20090711 13:15	18.7	18.7	18.7	51	8.4	13	27	292	0.0	1016.2	937	0.000	7.1
20090711 13:20	19.0	19.0	19.0	51	8.6	14	27	270	0.0	1016.2	920	0.000	7.2
20090711 13:25	19.1	19.1	19.1	50	8.4	16	26	270	0.0	1016.2	958	0.000	6.2
20090711 13:30	19.1	19.1	19.1	51	8.7	10	19	292	0.0	1016.1	1019	0.000	7.2
20090711 13:35	19.2	19.2	19.2	48	7.9	13	23	292	0.0	1016.0	1036	0.000	7.0
20090711 13:40	19.2	19.2	19.2	49	8.2	11	18	292	0.0	1016.0	338	0.000	3.7
20090711 13:45	18.8	18.8	18.8	50	8.2	11	24	315	0.0	1016.1	238	0.000	2.6
20090711 13:50	18.4	18.4	18.4	51	8.1	11	18	315	0.0	1016.0	241	0.000	4.8
20090711 13:55	18.5	18.5	18.5	53	8.7	11	16	315	0.0	1016.0	1149	0.000	7.4
20090711 14:00	19.0	19.0	19.0	52	8.9	13	24	292	0.0	1015.9	1104	0.483	7.2
20090711 14:05	19.1	19.1	19.1	50	8.4	11	19	270	0.0	1015.8	215	0.000	2.5
20090711 14:10	18.8	18.8	18.8	52	8.7	10	21	292	0.0	1015.9	150	0.000	1.5
20090711 14:15	18.4	18.4	18.4	54	9.0	10	18	270	0.0	1016.0	183	0.000	2.3
20090711 14:20	18.6	18.6	18.6	53	8.8	10	19	270	0.0	1016.1	981	0.000	6.2
20090711 14:25	18.9	18.9	18.9	52	8.8	14	26	292	0.0	1015.9	271	0.000	4.4
20090711 14:30	18.8	18.8	18.8	52	8.7	16	27	270	0.0	1015.9	251	0.000	4.4
20090711 14:35	18.9	18.9	18.9	50	8.2	16	29	292	0.0	1016.0	311	0.000	4.7
20090711 14:40	19.0	19.0	19.0	50	8.3	18	34	270	0.0	1016.1	394	0.000	4.4
20090711 14:45	19.2	19.2	19.2	49	8.2	16	26	292	0.0	1016.0	664	0.000	4.3
20090711 14:50	19.0	19.0	19.0	50	8.3	16	34	270	0.0	1016.1	248	0.000	2.3
20090711 14:55	18.7	18.7	18.7	48	7.4	18	27	292	0.0	1016.2	237	0.000	2.3
20090711 15:00	18.4	18.4	18.4	48	7.2	18	27	292	0.0	1016.2	418	0.330	3.4
20090711 15:05	19.0	19.0	19.0	48	7.7	16	24	292	0.0	1016.0	944	0.000	6.5
20090711 15:10	19.6	19.6	19.6	46	7.7	16	31	292	0.0	1016.0	901	0.000	6.0
20090711 15:15	19.9	19.9	19.9	45	7.6	16	24	292	0.0	1015.9	925	0.000	5.0
20090711 15:20	19.8	19.8	19.8	48	8.4	16	24	292	0.0	1015.9	260	0.000	5.2
20090711 15:25	19.9	19.9	19.9	45	7.6	14	29	315	0.0	1015.9	883	0.000	6.0
20090711 15:30	20.2	20.2	20.2	45	7.8	14	34	292	0.0	1015.9	836	0.000	5.3
20090711 15:35	20.3	20.3	20.3	43	7.3	11	29	292	0.0	1015.9	513	0.000	3.7
20090711 15:40	19.8	19.8	19.8	44	7.2	11	19	292	0.0	1016.0	224	0.000	2.2
20090711 15:45	19.6	19.6	19.6	45	7.3	8	18	292	0.0	1016.1	754	0.000	4.3
20090711 15:50	19.9	19.9	19.9	46	7.9	10	18	292	0.0	1015.8	864	0.000	5.1
20090711 15:55	20.4	20.4	20.4	43	7.4	14	29	292	0.0	1015.8	863	0.000	5.0
20090711 16:00	20.6	20.6	20.6	43	7.5	16	24	270	0.0	1015.9	831	0.508	4.6
20090711 16:05	20.6	20.6	20.6	43	7.5	14	21	292	0.0	1015.9	631	0.000	3.9
20090711 16:10	20.1	20.1	20.1	44	7.5	14	29	292	0.0	1015.9	179	0.000	2.5
20090711 16:15	19.7	19.7	19.7	45	7.4	11	21	315	0.0	1015.9	569	0.000	3.6
20090711 16:20	20.1	20.1	20.1	44	7.4	13	21	292	0.0	1015.9	804	0.000	4.3
20090711 16:25	20.1	20.1	20.1	44	7.5	13	23	315	0.0	1016.0	756	0.000	4.1
20090711 16:30	20.0	20.0	20.0	46	8.0	13	24	292	0.0	1016.0	234	0.000	2.4
20090711 16:35	19.7	19.7	19.7	47	8.0	13	23	270	0.0	1016.1	261	0.000	2.0
20090711 16:40	19.3	19.3	19.3	46	7.4	13	19	292	0.0	1016.1	231	0.000	1.6
20090711 16:45	18.9	18.9	18.9	46	7.1	13	21	292	0.0	1016.1	206	0.000	1.4
20090711 16:50	18.7	18.7	18.7	48	7.4	13	23	292	0.0	1016.2	188	0.000	1.2
20090711 16:55	18.6	18.6	18.6	48	7.3	13	21	292	0.0	1016.3	180	0.000	1.1
20090711 17:00	18.4	18.4	18.4	49	7.5	10	18	292	0.0	1016.3	174	0.305	1.1
20090711 17:05	18.4	18.4	18.4	48	7.2	10	18	270	0.0	1016.2	219	0.000	1.2
20090711 17:10	18.5	18.5	18.5	49	7.6	10	16	270	0.0	1016.2	321	0.000	1.9
20090711 17:15	18.7	18.7	18.7	48	7.4	11	21	270	0.0	1016.2	250	0.000	1.7
20090711 17:20	18.8	18.8	18.8	51	8.5	8	16	270	0.0	1016.2	454	0.000	2.0
20090711 17:25	19.3	19.3	19.3	48	8.0	14	23	292	0.0	1016.1	644	0.000	2.2
20090711 17:30	19.4	19.4	19.4	46	7.5	11	23	270	0.0	1016.0	246	0.000	1.7
20090711 17:35	19.3	19.3	19.3	46	7.4	10	19	270	0.0	1016.0	243	0.000	1.5
20090711 17:40	19.4	19.4	19.4	47	7.8	10	19	270	0.0	1015.8	355	0.000	1.9
20090711 17:45	19.1	19.1	19.1	47	7.5	14	24	248	0.0	1015.8	171	0.000	1.3
20090711 17:50	18.8	18.8	18.8	47	7.2	11	19	270	0.0	1015.9	188	0.000	1.1
20090711 17:55	18.7	18.7	18.7	48	7.4	8	16	270	0.0	1015.9	198	0.000	1.0
20090711 18:00	18.7	18.7	18.7	48	7.4	5	10	248	0.0	1015.8	173	0.254	0.9
20090711 18:05	18.6	18.6	18.6	49	7.7	10	19	270	0.0	1015.6	109	0.000	0.6
20090711 18:10	18.6	18.6	18.6	51	8.2	8	14	270	0.0	1015.8	153	0.000	0.7
20090711 18:15	18.6	18.6	18.6	53	8.8	8	16	292	0.0	1015.8	130	0.000	0.8
20090711 18:20	18.4	18.4	18.4	50	7.8	10	18	270	0.0	1015.7	93	0.000	0.3
20090711 18:25	18.3	18.3	18.3	51	8.0	8	18	270	0.0	1015.7	136	0.000	0.4
20090711 18:30	18.8	18.8	18.8	51	8.5	6	14	292	0.0	1015.6	479	0.000	1.0
20090711 18:35	19.4	19.4	19.4	49	8.4	13	21	270	0.0	1015.6	395	0.000	1.0
20090711 18:40	19.8	19.8	19.8	48	8.4	11	23	292	0.0	1015.5	363	0.000	0.9
20090711 18:45	19.9	19.9	19.9	47	8.2	16	24	292	0.0	1015.5	366	0.000	0.9
20090711 18:50	19.8	19.8	19.8	48	8.5	11	19	270	0.0	1015.5	347	0.000	0.8
20090711 18:55	19.8	19.8	19.8	50	9.0	8	16	248	0.0	1015.6	193	0.000	0.7
20090711 19:00	19.5	19.5	19.5	48	8.2	10	18	270	0.0	1015.8	154	0.203	0.7
20090711 19:05	19.1	19.1	19.1	52	9.0	6	11	292	0.0	1015.7	97	0.000	0.5
20090711 19:10	18.8	18.8	18.8	52	8.7	6	14	292	0.0	1015.6	95	0.000	0.4
20090711 19:15	18.6	18.6	18.6	52	8.5	8	14	270	0.0	1015.8	197	0.000	0.0
20090711 19:20	18.6	18.6	18.6	52	8.6	6	16	270	0.0	1015.7	238	0.000	0.0
20090711 19:25	18.6	18.6	18.6	52	8.6	6	11	292	0.0	1015.7	91	0.000	0.0
20090711 19:30	18.4	18.4	18.4	52	8.4	6	16	248	0.0	1015.8	50	0.000	0.0
20090711 19:35	18.2	18.2	18.2	52	8.1	10	18	270	0.0	1015.9	70	0.000	0.0
20090711 19:40	18.2	18.2	18.2	52	8.1	8	11	270	0.0	1016.0	111	0.000	0.0
20090711 19:45	18.3	18.3	18.3	51	8.0	10	18	270	0.0	1015.9	112	0.000	0.0
20090711 19:50	18.2	18.2	18.2	53	8.5	8	16	270	0.0	1016.0	61	0.000	0.0
20090711 19:55	18.1	18.1	18.1	54	8.6	6	14	270	0.0	1016.0	52	0.000	0.0
20090711 20:00	17.9	17.9	17.9	55	8.7	6	10	248	0.0	1015.9	59	0.102	0.0
20090711 20:05	17.8	17.8	17.8	56	8.9	5	11	270	0.0	1015.7	62	0.000	0.0
20090711 20:10	17.7	17.7	17.7	56	8.8	6	11	270	0.0	1015.8	54	0.000	0.0
20090711 20:15	17.7	17.7	17.7	57	9.0	6	13	270	0.0	1015.8	49	0.000	0.0
20090711 20:20	17.6	17.6	17.6	56	8.7	6	14	270	0.0	1015.7	45	0.000	0.0
20090711 20:25	17.4	17.4	17.4	57	8.8	3	6	270	0.0	1015.9	41	0.000	0.0
20090711 20:30	17.3	17.3	17.3	58	8.9	5	6	270	0.0	1015.9	33	0.000	0.0
20090711 20:35	17.1	17.1	17.1	59	9.0	3	8	270	0.0	1015.9	31	0.000	0.0
20090711 20:40	16.9	16.9	16.9	60	9.1	3	6	270	0.0	1015.9	29	0.000	0.0
20090711 20:45	16.8	16.8	16.8	60	9.0	5	6	270	0.0	1015.8	23	0.000	0.0
20090711 20:50	16.6	16.6	16.6	61	9.0	5	8	270	0.0	1015.9	16	0.000	0.0
20090711 20:55	16.3	16.3	16.3	62	9.0	5	8	270	0.0	1015.9	13	0.000	0.0
20090711 21:00	16.2	16.2	16.2	63	9.1	2	5	270	0.0	1016.1	11	0.051	0.0
20090711 21:05	15.9	15.9	15.9	63	8.9	3	8	270	0.0	1016.0	8	0.000	0.0
20090711 21:10	15.7	15.7	15.7	63	8.7	3	6	270	0.0	1016.0	5	0.000	0.0
20090711 21:15	15.6	15.6	15.6	64	8.8	3	6	270	0.0	1016.0	2	0.000	0.0
20090711 21:20	15.3	15.3	15.3	65	8.8	3	8	270	0.0	1016.0	0	0.000	0.0
20090711 21:25	15.2	15.2	15.2	65	8.6	3	5	270	0.0	1016.2	0	0.000	0.0
20090711 21:30	15.1	15.1	15.1	66	8.7	2	5	270	0.0	1016.1	0	0.000	0.0
20090711 21:35	15.0	15.0	15.0	66	8.7	3	6	270	0.0	1016.2	0	0.000	0.0
20090711 21:40	15.0	15.0	15.0	66	8.7	3	5	270	0.0	1016.2	0	0.000	0.0
20090711 21:45	14.9	14.9	14.9	66	8.6	3	6	270	0.0	1016.2	0	0.000	0.0
20090711 21:50	14.8	14.8	14.8	66	8.5	3	5	270	0.0	1016.2	0	0.000	0.0
20090711 21:55	14.7	14.7	14.7	67	8.6	3	6	270	0.0	1016.3	0	0.000	0.0
20090711 22:00	14.5	14.5	14.5	68	8.7	5	8	270	0.0	1016.4	0	0.025	0.0
20090711 22:05	14.4	14.4	14.4	69	8.8	3	6	248	0.0	1016.5	0	0.000	0.0
20090711 22:10	14.3	14.3	14.3	69	8.7	0	3	248	0.0	1016.6	0	0.000	0.0
20090711 22:15	14.2	14.2	14.2	70	8.8	0	2	248	0.0	1016.6	0	0.000	0.0
20090711 22:20	13.9	13.9	13.9	70	8.6	2	5	248	0.0	1016.6	0	0.000	0.0
20090711 22:25	13.8	13.8	13.8	71	8.7	3	5	248	0.0	1016.6	0	0.000	0.0
20090711 22:30	13.7	13.7	13.7	72	8.8	3	6	248	0.0	1016.6	0	0.000	0.0
20090711 22:35	13.6	13.6	13.6	73	8.9	0	5	248	0.0	1016.6	0	0.000	0.0
20090711 22:40	13.5	13.5	13.5	73	8.8	0	5	248	0.0	1016.6	0	0.000	0.0
20090711 22:45	13.4	13.4	13.4	74	8.8	2	5	248	0.0	1016.6	0	0.000	0.0
20090711 22:50	13.2	13.2	13.2	75	8.9	2	5	248	0.0	1016.7	0	0.000	0.0
20090711 22:55	13.1	13.1	13.1	75	8.8	2	5	248	0.0	1016.7	0	0.000	0.0
20090711 23:00	13.0	13.0	13.0	76	8.9	3	6	248	0.0	1016.8	0	0.025	0.0
20090711 23:05	12.9	12.9	12.9	76	8.8	5	10	248	0.0	1016.6	0	0.000	0.0
20090711 23:10	12.9	12.9	12.9	76	8.8	3	8	248	0.0	1016.6	0	0.000	0.0
20090711 23:15	12.9	12.9	12.9	76	8.8	5	8	248	0.0	1016.7	0	0.000	0.0
20090711 23:20	12.9	12.9	12.9	76	8.8	3	6	248	0.0	1016.7	0	0.000	0.0
20090711 23:25	12.8	12.8	12.8	76	8.7	3	8	180	0.0	1016.6	0	0.000	0.0
20090711 23:30	12.7	12.7	12.7	77	8.7	2	5	180	0.0	1016.6	0	0.000	0.0
20090711 23:35	12.5	12.5	12.5	78	8.8	2	5	180	0.0	1016.6	0	0.000	0.0
20090711 23:40	12.4	12.4	12.4	78	8.7	2	5	180	0.0	1016.8	0	0.000	0.0
20090711 23:45	12.3	12.3	12.3	78	8.6	3	6	180	0.0	1016.8	0	0.000	0.0
20090711 23:50	12.2	12.2	12.2	79	8.6	3	8	180	0.0	1016.8	0	0.000	0.0
20090711 23:55	12.1	12.1	12.1	79	8.6	2	6	180	0.0	1016.9	0	0.000	0.0



Please note the license to use and transfer of this data:
http://creativecommons.org/licenses/by-nc-sa/3.0/deed.en

Bitte beachten sie die Lizenz zur Verwertung und Weitergabe der Daten:
http://creativecommons.org/licenses/by-nc-sa/3.0/deed.de

zurück zur Übersicht der Archivdaten (Monats und Tagesdaten)

Cookies helfen bei der Bereitstellung von Inhalten. Durch die Nutzung dieser Seiten erklärst du dich damit einverstanden, dass Cookies auf deinem Rechner gespeichert werden. Weitere Information